sensor_id;sensor_type;location;lat;lon;timestamp;pressure;altitude;pressure_sealevel;temperature;humidity
33153;BME280;19509;43.862;26.176;2023-05-22T00:00:29;100631.44;;;12.97;86.42
33153;BME280;19509;43.862;26.176;2023-05-22T00:02:56;100630.09;;;12.70;88.17
33153;BME280;19509;43.862;26.176;2023-05-22T00:05:22;100634.00;;;12.74;88.26
33153;BME280;19509;43.862;26.176;2023-05-22T00:07:48;100631.69;;;12.77;88.52
33153;BME280;19509;43.862;26.176;2023-05-22T00:10:13;100621.41;;;12.68;88.68
33153;BME280;19509;43.862;26.176;2023-05-22T00:12:39;100635.09;;;12.66;88.86
33153;BME280;19509;43.862;26.176;2023-05-22T00:15:05;100627.81;;;12.67;88.99
33153;BME280;19509;43.862;26.176;2023-05-22T00:17:31;100629.50;;;12.68;88.67
33153;BME280;19509;43.862;26.176;2023-05-22T00:19:58;100628.00;;;12.72;88.12
33153;BME280;19509;43.862;26.176;2023-05-22T00:22:28;100632.28;;;12.79;87.55
33153;BME280;19509;43.862;26.176;2023-05-22T00:24:56;100621.53;;;12.73;87.59
33153;BME280;19509;43.862;26.176;2023-05-22T00:27:22;100626.81;;;12.68;87.80
33153;BME280;19509;43.862;26.176;2023-05-22T00:29:47;100619.66;;;12.73;87.53
33153;BME280;19509;43.862;26.176;2023-05-22T00:32:13;100614.25;;;12.73;87.30
33153;BME280;19509;43.862;26.176;2023-05-22T00:34:38;100617.44;;;12.70;87.60
33153;BME280;19509;43.862;26.176;2023-05-22T00:37:04;100623.94;;;12.63;87.70
33153;BME280;19509;43.862;26.176;2023-05-22T00:39:29;100612.47;;;12.67;87.34
33153;BME280;19509;43.862;26.176;2023-05-22T00:41:55;100612.84;;;12.71;87.64
33153;BME280;19509;43.862;26.176;2023-05-22T00:44:20;100608.94;;;12.67;87.38
33153;BME280;19509;43.862;26.176;2023-05-22T00:46:47;100606.84;;;12.69;86.59
33153;BME280;19509;43.862;26.176;2023-05-22T00:49:12;100604.13;;;12.69;87.13
33153;BME280;19509;43.862;26.176;2023-05-22T00:51:38;100602.00;;;12.77;87.04
33153;BME280;19509;43.862;26.176;2023-05-22T00:54:04;100609.41;;;12.64;87.48
33153;BME280;19509;43.862;26.176;2023-05-22T00:56:30;100602.34;;;12.63;87.24
33153;BME280;19509;43.862;26.176;2023-05-22T00:58:57;100607.78;;;12.56;86.97
33153;BME280;19509;43.862;26.176;2023-05-22T01:01:23;100596.09;;;12.44;87.40
33153;BME280;19509;43.862;26.176;2023-05-22T01:03:51;100591.91;;;12.48;87.20
33153;BME280;19509;43.862;26.176;2023-05-22T01:06:18;100588.81;;;12.44;87.50
33153;BME280;19509;43.862;26.176;2023-05-22T01:08:46;100589.03;;;12.43;86.71
33153;BME280;19509;43.862;26.176;2023-05-22T01:11:19;100589.09;;;12.36;86.93
33153;BME280;19509;43.862;26.176;2023-05-22T01:16:31;100587.50;;;12.28;86.56
33153;BME280;19509;43.862;26.176;2023-05-22T01:21:28;100584.03;;;12.21;86.81
33153;BME280;19509;43.862;26.176;2023-05-22T01:27:11;100581.19;;;12.16;86.08
33153;BME280;19509;43.862;26.176;2023-05-22T01:29:58;100586.78;;;12.15;86.93
33153;BME280;19509;43.862;26.176;2023-05-22T01:32:28;100583.94;;;12.10;87.48
33153;BME280;19509;43.862;26.176;2023-05-22T01:34:58;100588.13;;;12.05;87.16
33153;BME280;19509;43.862;26.176;2023-05-22T01:37:26;100582.28;;;12.08;86.88
33153;BME280;19509;43.862;26.176;2023-05-22T01:39:52;100586.56;;;11.91;87.64
33153;BME280;19509;43.862;26.176;2023-05-22T01:42:19;100589.56;;;11.76;87.53
33153;BME280;19509;43.862;26.176;2023-05-22T01:44:46;100589.31;;;11.78;87.47
33153;BME280;19509;43.862;26.176;2023-05-22T01:47:12;100582.69;;;11.80;87.33
33153;BME280;19509;43.862;26.176;2023-05-22T01:49:38;100587.09;;;11.68;88.14
33153;BME280;19509;43.862;26.176;2023-05-22T01:52:30;100579.41;;;11.72;88.02
33153;BME280;19509;43.862;26.176;2023-05-22T01:55:08;100578.97;;;11.75;86.86
33153;BME280;19509;43.862;26.176;2023-05-22T02:01:09;100575.59;;;11.16;88.27
33153;BME280;19509;43.862;26.176;2023-05-22T02:03:37;100583.50;;;11.11;88.68
33153;BME280;19509;43.862;26.176;2023-05-22T02:06:05;100588.28;;;11.02;88.97
33153;BME280;19509;43.862;26.176;2023-05-22T02:08:36;100589.47;;;11.20;88.28
33153;BME280;19509;43.862;26.176;2023-05-22T02:11:03;100586.16;;;11.18;88.30
33153;BME280;19509;43.862;26.176;2023-05-22T02:13:30;100589.66;;;11.25;87.85
33153;BME280;19509;43.862;26.176;2023-05-22T02:15:56;100589.22;;;11.28;88.32
33153;BME280;19509;43.862;26.176;2023-05-22T02:18:26;100595.03;;;11.25;87.73
33153;BME280;19509;43.862;26.176;2023-05-22T02:20:57;100587.78;;;11.25;87.81
33153;BME280;19509;43.862;26.176;2023-05-22T02:23:23;100586.72;;;11.26;87.10
33153;BME280;19509;43.862;26.176;2023-05-22T02:25:49;100593.41;;;11.17;88.06
33153;BME280;19509;43.862;26.176;2023-05-22T02:28:15;100590.47;;;11.25;87.95
33153;BME280;19509;43.862;26.176;2023-05-22T02:30:40;100597.53;;;11.20;88.43
33153;BME280;19509;43.862;26.176;2023-05-22T02:33:06;100598.97;;;11.22;87.99
33153;BME280;19509;43.862;26.176;2023-05-22T02:35:33;100594.44;;;11.16;88.69
33153;BME280;19509;43.862;26.176;2023-05-22T02:38:00;100597.13;;;11.23;88.05
33153;BME280;19509;43.862;26.176;2023-05-22T02:40:25;100601.06;;;11.20;88.50
33153;BME280;19509;43.862;26.176;2023-05-22T02:42:51;100602.31;;;11.24;88.35
33153;BME280;19509;43.862;26.176;2023-05-22T02:45:17;100606.66;;;11.19;88.21
33153;BME280;19509;43.862;26.176;2023-05-22T02:47:43;100611.41;;;11.23;87.91
33153;BME280;19509;43.862;26.176;2023-05-22T02:50:09;100610.19;;;11.19;88.37
33153;BME280;19509;43.862;26.176;2023-05-22T02:52:35;100606.50;;;11.07;88.54
33153;BME280;19509;43.862;26.176;2023-05-22T02:55:02;100612.25;;;11.17;88.70
33153;BME280;19509;43.862;26.176;2023-05-22T02:57:28;100598.00;;;11.10;88.70
33153;BME280;19509;43.862;26.176;2023-05-22T02:59:54;100609.56;;;11.17;89.15
33153;BME280;19509;43.862;26.176;2023-05-22T03:02:24;100608.50;;;11.31;88.85
33153;BME280;19509;43.862;26.176;2023-05-22T03:04:50;100609.50;;;11.30;88.18
33153;BME280;19509;43.862;26.176;2023-05-22T03:07:15;100611.31;;;11.43;88.39
33153;BME280;19509;43.862;26.176;2023-05-22T03:09:41;100599.06;;;11.47;87.51
33153;BME280;19509;43.862;26.176;2023-05-22T03:12:07;100603.22;;;11.43;87.31
33153;BME280;19509;43.862;26.176;2023-05-22T03:14:33;100610.22;;;11.51;87.75
33153;BME280;19509;43.862;26.176;2023-05-22T03:16:58;100611.72;;;11.47;86.73
33153;BME280;19509;43.862;26.176;2023-05-22T03:19:24;100612.56;;;11.41;87.15
33153;BME280;19509;43.862;26.176;2023-05-22T03:21:50;100614.84;;;11.44;86.83
33153;BME280;19509;43.862;26.176;2023-05-22T03:24:16;100609.66;;;11.42;86.68
33153;BME280;19509;43.862;26.176;2023-05-22T03:26:41;100612.56;;;11.41;85.58
33153;BME280;19509;43.862;26.176;2023-05-22T03:29:08;100606.81;;;11.30;86.17
33153;BME280;19509;43.862;26.176;2023-05-22T03:31:34;100612.16;;;11.37;86.65
33153;BME280;19509;43.862;26.176;2023-05-22T03:34:00;100614.44;;;11.40;86.64
33153;BME280;19509;43.862;26.176;2023-05-22T03:36:26;100622.75;;;11.39;86.67
33153;BME280;19509;43.862;26.176;2023-05-22T03:38:51;100607.09;;;11.54;86.34
33153;BME280;19509;43.862;26.176;2023-05-22T03:41:17;100607.88;;;11.61;86.38
33153;BME280;19509;43.862;26.176;2023-05-22T03:43:43;100605.97;;;11.68;86.11
33153;BME280;19509;43.862;26.176;2023-05-22T03:46:09;100600.34;;;11.76;86.19
33153;BME280;19509;43.862;26.176;2023-05-22T03:48:37;100604.19;;;11.94;85.52
33153;BME280;19509;43.862;26.176;2023-05-22T03:51:03;100601.66;;;11.99;85.64
33153;BME280;19509;43.862;26.176;2023-05-22T03:53:29;100604.13;;;12.00;86.67
33153;BME280;19509;43.862;26.176;2023-05-22T03:55:54;100607.38;;;12.09;86.05
33153;BME280;19509;43.862;26.176;2023-05-22T03:58:22;100608.56;;;12.20;86.43
33153;BME280;19509;43.862;26.176;2023-05-22T04:00:51;100613.13;;;12.44;85.51
33153;BME280;19509;43.862;26.176;2023-05-22T04:03:17;100613.63;;;12.53;85.09
33153;BME280;19509;43.862;26.176;2023-05-22T04:05:47;100606.25;;;12.85;84.74
33153;BME280;19509;43.862;26.176;2023-05-22T04:08:12;100601.94;;;13.14;82.53
33153;BME280;19509;43.862;26.176;2023-05-22T04:10:38;100602.56;;;13.35;81.56
33153;BME280;19509;43.862;26.176;2023-05-22T04:13:04;100600.00;;;13.40;81.01
33153;BME280;19509;43.862;26.176;2023-05-22T04:15:30;100600.00;;;13.40;80.99
33153;BME280;19509;43.862;26.176;2023-05-22T04:18:01;100612.97;;;13.49;81.08
33153;BME280;19509;43.862;26.176;2023-05-22T04:20:27;100604.25;;;13.47;81.55
33153;BME280;19509;43.862;26.176;2023-05-22T04:22:52;100593.44;;;13.47;81.73
33153;BME280;19509;43.862;26.176;2023-05-22T04:25:20;100598.75;;;13.54;81.32
33153;BME280;19509;43.862;26.176;2023-05-22T04:27:46;100600.03;;;13.52;81.20
33153;BME280;19509;43.862;26.176;2023-05-22T04:30:15;100597.13;;;13.53;80.90
33153;BME280;19509;43.862;26.176;2023-05-22T04:32:41;100606.22;;;13.59;80.74
33153;BME280;19509;43.862;26.176;2023-05-22T04:35:08;100601.19;;;13.74;80.90
33153;BME280;19509;43.862;26.176;2023-05-22T04:37:38;100605.13;;;13.90;80.43
33153;BME280;19509;43.862;26.176;2023-05-22T04:40:07;100595.84;;;13.98;80.56
33153;BME280;19509;43.862;26.176;2023-05-22T04:42:33;100602.44;;;14.02;80.56
33153;BME280;19509;43.862;26.176;2023-05-22T04:44:59;100599.28;;;14.16;80.46
33153;BME280;19509;43.862;26.176;2023-05-22T04:47:25;100596.94;;;14.32;79.85
33153;BME280;19509;43.862;26.176;2023-05-22T04:49:53;100597.06;;;14.37;79.17
33153;BME280;19509;43.862;26.176;2023-05-22T04:52:19;100602.13;;;14.45;79.33
33153;BME280;19509;43.862;26.176;2023-05-22T04:54:45;100599.44;;;14.57;78.97
33153;BME280;19509;43.862;26.176;2023-05-22T04:57:11;100608.75;;;14.61;79.55
33153;BME280;19509;43.862;26.176;2023-05-22T04:59:36;100597.91;;;14.73;79.03
33153;BME280;19509;43.862;26.176;2023-05-22T05:02:05;100597.28;;;14.71;79.30
33153;BME280;19509;43.862;26.176;2023-05-22T05:04:31;100607.75;;;14.90;79.43
33153;BME280;19509;43.862;26.176;2023-05-22T05:06:57;100601.72;;;15.00;79.16
33153;BME280;19509;43.862;26.176;2023-05-22T05:09:23;100604.38;;;15.24;79.13
33153;BME280;19509;43.862;26.176;2023-05-22T05:11:49;100601.09;;;15.50;77.42
33153;BME280;19509;43.862;26.176;2023-05-22T05:14:16;100602.00;;;15.68;76.86
33153;BME280;19509;43.862;26.176;2023-05-22T05:16:41;100603.91;;;15.84;76.35
33153;BME280;19509;43.862;26.176;2023-05-22T05:19:07;100604.09;;;15.94;76.92
33153;BME280;19509;43.862;26.176;2023-05-22T05:21:33;100609.88;;;16.15;76.58
33153;BME280;19509;43.862;26.176;2023-05-22T05:23:59;100614.13;;;16.44;76.44
33153;BME280;19509;43.862;26.176;2023-05-22T05:26:24;100615.56;;;17.08;74.65
33153;BME280;19509;43.862;26.176;2023-05-22T05:28:52;100606.13;;;18.18;71.12
33153;BME280;19509;43.862;26.176;2023-05-22T05:31:18;100610.25;;;18.63;68.56
33153;BME280;19509;43.862;26.176;2023-05-22T05:33:44;100605.78;;;18.42;69.05
33153;BME280;19509;43.862;26.176;2023-05-22T05:36:10;100608.34;;;18.59;68.82
33153;BME280;19509;43.862;26.176;2023-05-22T05:38:35;100611.31;;;18.57;69.80
33153;BME280;19509;43.862;26.176;2023-05-22T05:41:01;100610.31;;;18.68;69.58
33153;BME280;19509;43.862;26.176;2023-05-22T05:43:26;100614.41;;;19.24;67.36
33153;BME280;19509;43.862;26.176;2023-05-22T05:45:52;100605.50;;;19.59;66.49
33153;BME280;19509;43.862;26.176;2023-05-22T05:48:18;100614.19;;;19.46;66.69
33153;BME280;19509;43.862;26.176;2023-05-22T05:50:43;100613.47;;;18.93;68.35
33153;BME280;19509;43.862;26.176;2023-05-22T05:53:09;100617.41;;;18.32;69.76
33153;BME280;19509;43.862;26.176;2023-05-22T05:55:35;100612.53;;;18.34;70.49
33153;BME280;19509;43.862;26.176;2023-05-22T05:58:00;100618.94;;;18.18;71.78
33153;BME280;19509;43.862;26.176;2023-05-22T06:00:26;100621.50;;;17.76;72.58
33153;BME280;19509;43.862;26.176;2023-05-22T06:02:52;100624.16;;;17.92;72.89
33153;BME280;19509;43.862;26.176;2023-05-22T06:05:17;100630.63;;;17.86;75.01
33153;BME280;19509;43.862;26.176;2023-05-22T06:07:44;100623.59;;;17.90;72.86
33153;BME280;19509;43.862;26.176;2023-05-22T06:10:10;100634.31;;;18.02;76.67
33153;BME280;19509;43.862;26.176;2023-05-22T06:12:36;100632.53;;;17.86;73.61
33153;BME280;19509;43.862;26.176;2023-05-22T06:15:06;100630.56;;;18.08;73.91
33153;BME280;19509;43.862;26.176;2023-05-22T06:17:33;100634.69;;;18.11;73.13
33153;BME280;19509;43.862;26.176;2023-05-22T06:19:58;100633.75;;;18.32;74.75
33153;BME280;19509;43.862;26.176;2023-05-22T06:22:24;100622.88;;;18.37;71.28
33153;BME280;19509;43.862;26.176;2023-05-22T06:24:51;100623.59;;;18.60;72.61
33153;BME280;19509;43.862;26.176;2023-05-22T06:27:21;100625.72;;;18.90;72.50
33153;BME280;19509;43.862;26.176;2023-05-22T06:29:50;100624.84;;;18.84;69.68
33153;BME280;19509;43.862;26.176;2023-05-22T06:32:16;100629.38;;;18.68;68.80
33153;BME280;19509;43.862;26.176;2023-05-22T06:34:43;100625.09;;;18.78;71.54
33153;BME280;19509;43.862;26.176;2023-05-22T06:37:09;100630.84;;;18.81;69.05
33153;BME280;19509;43.862;26.176;2023-05-22T06:39:35;100618.13;;;18.97;69.91
33153;BME280;19509;43.862;26.176;2023-05-22T06:42:00;100611.63;;;19.08;67.43
33153;BME280;19509;43.862;26.176;2023-05-22T06:44:26;100612.22;;;19.26;67.05
33153;BME280;19509;43.862;26.176;2023-05-22T06:46:51;100606.56;;;19.37;67.80
33153;BME280;19509;43.862;26.176;2023-05-22T06:49:18;100612.53;;;19.34;67.20
33153;BME280;19509;43.862;26.176;2023-05-22T06:51:44;100603.09;;;19.68;70.55
33153;BME280;19509;43.862;26.176;2023-05-22T06:54:10;100603.03;;;19.47;64.72
33153;BME280;19509;43.862;26.176;2023-05-22T06:56:38;100613.28;;;19.09;65.92
33153;BME280;19509;43.862;26.176;2023-05-22T06:59:03;100607.00;;;19.14;67.95
33153;BME280;19509;43.862;26.176;2023-05-22T07:01:29;100614.19;;;19.41;67.25
33153;BME280;19509;43.862;26.176;2023-05-22T07:03:56;100610.22;;;19.74;68.37
33153;BME280;19509;43.862;26.176;2023-05-22T07:06:22;100615.63;;;18.85;66.02
33153;BME280;19509;43.862;26.176;2023-05-22T07:08:49;100616.00;;;19.09;69.68
33153;BME280;19509;43.862;26.176;2023-05-22T07:11:15;100617.22;;;19.44;66.76
33153;BME280;19509;43.862;26.176;2023-05-22T07:13:40;100611.44;;;19.35;66.71
33153;BME280;19509;43.862;26.176;2023-05-22T07:16:06;100613.91;;;19.37;64.94
33153;BME280;19509;43.862;26.176;2023-05-22T07:18:32;100613.59;;;19.23;65.66
33153;BME280;19509;43.862;26.176;2023-05-22T07:20:57;100615.00;;;19.46;68.84
33153;BME280;19509;43.862;26.176;2023-05-22T07:23:23;100612.81;;;19.38;67.64
33153;BME280;19509;43.862;26.176;2023-05-22T07:25:49;100616.53;;;19.11;70.52
33153;BME280;19509;43.862;26.176;2023-05-22T07:28:14;100626.16;;;19.24;68.33
33153;BME280;19509;43.862;26.176;2023-05-22T07:30:40;100617.75;;;19.46;68.45
33153;BME280;19509;43.862;26.176;2023-05-22T07:33:05;100617.59;;;19.78;66.52
33153;BME280;19509;43.862;26.176;2023-05-22T07:35:31;100618.69;;;19.88;66.60
33153;BME280;19509;43.862;26.176;2023-05-22T07:37:57;100616.25;;;19.91;65.33
33153;BME280;19509;43.862;26.176;2023-05-22T07:40:22;100613.53;;;20.22;65.08
33153;BME280;19509;43.862;26.176;2023-05-22T07:42:48;100620.34;;;20.60;65.34
33153;BME280;19509;43.862;26.176;2023-05-22T07:45:13;100615.69;;;20.50;64.79
33153;BME280;19509;43.862;26.176;2023-05-22T07:47:39;100610.75;;;20.47;65.09
33153;BME280;19509;43.862;26.176;2023-05-22T07:50:05;100615.16;;;20.33;65.01
33153;BME280;19509;43.862;26.176;2023-05-22T07:52:31;100608.03;;;20.17;64.97
33153;BME280;19509;43.862;26.176;2023-05-22T07:54:57;100601.22;;;20.29;65.58
33153;BME280;19509;43.862;26.176;2023-05-22T07:57:22;100597.38;;;20.61;66.63
33153;BME280;19509;43.862;26.176;2023-05-22T07:59:48;100595.13;;;20.78;63.60
33153;BME280;19509;43.862;26.176;2023-05-22T08:02:16;100596.19;;;20.93;66.99
33153;BME280;19509;43.862;26.176;2023-05-22T08:04:41;100596.72;;;20.95;61.44
33153;BME280;19509;43.862;26.176;2023-05-22T08:07:09;100600.41;;;21.35;60.96
33153;BME280;19509;43.862;26.176;2023-05-22T08:09:34;100610.28;;;21.25;59.48
33153;BME280;19509;43.862;26.176;2023-05-22T08:12:00;100599.97;;;21.02;61.45
33153;BME280;19509;43.862;26.176;2023-05-22T08:14:26;100602.78;;;20.82;62.44
33153;BME280;19509;43.862;26.176;2023-05-22T08:16:51;100598.25;;;21.26;62.76
33153;BME280;19509;43.862;26.176;2023-05-22T08:19:17;100596.69;;;21.60;64.47
33153;BME280;19509;43.862;26.176;2023-05-22T08:21:42;100594.50;;;21.62;62.59
33153;BME280;19509;43.862;26.176;2023-05-22T08:24:08;100597.41;;;21.81;59.55
33153;BME280;19509;43.862;26.176;2023-05-22T08:26:33;100598.56;;;21.69;59.49
33153;BME280;19509;43.862;26.176;2023-05-22T08:28:59;100597.25;;;21.57;60.85
33153;BME280;19509;43.862;26.176;2023-05-22T08:31:25;100590.72;;;21.58;62.25
33153;BME280;19509;43.862;26.176;2023-05-22T08:33:53;100591.47;;;22.03;61.27
33153;BME280;19509;43.862;26.176;2023-05-22T08:36:27;100595.81;;;22.09;62.39
33153;BME280;19509;43.862;26.176;2023-05-22T08:38:54;100591.94;;;22.15;56.96
33153;BME280;19509;43.862;26.176;2023-05-22T08:41:19;100593.59;;;22.16;60.53
33153;BME280;19509;43.862;26.176;2023-05-22T08:43:46;100597.69;;;22.18;61.08
33153;BME280;19509;43.862;26.176;2023-05-22T08:46:11;100586.88;;;21.93;57.07
33153;BME280;19509;43.862;26.176;2023-05-22T08:48:40;100580.31;;;22.28;57.42
33153;BME280;19509;43.862;26.176;2023-05-22T08:51:06;100579.09;;;22.39;56.94
33153;BME280;19509;43.862;26.176;2023-05-22T08:53:36;100575.97;;;22.51;58.58
33153;BME280;19509;43.862;26.176;2023-05-22T08:56:06;100571.28;;;22.76;60.87
33153;BME280;19509;43.862;26.176;2023-05-22T08:58:34;100576.28;;;22.74;54.88
33153;BME280;19509;43.862;26.176;2023-05-22T09:01:01;100569.75;;;22.94;56.52
33153;BME280;19509;43.862;26.176;2023-05-22T09:03:28;100570.75;;;23.22;58.03
33153;BME280;19509;43.862;26.176;2023-05-22T09:06:00;100570.44;;;23.04;56.18
33153;BME280;19509;43.862;26.176;2023-05-22T09:08:26;100573.59;;;23.35;55.08
33153;BME280;19509;43.862;26.176;2023-05-22T09:10:52;100567.78;;;23.18;51.47
33153;BME280;19509;43.862;26.176;2023-05-22T09:13:27;100562.53;;;23.22;52.32
33153;BME280;19509;43.862;26.176;2023-05-22T09:16:08;100563.56;;;23.26;52.19
33153;BME280;19509;43.862;26.176;2023-05-22T09:18:35;100560.31;;;23.43;52.24
33153;BME280;19509;43.862;26.176;2023-05-22T09:21:01;100554.50;;;23.63;54.08
33153;BME280;19509;43.862;26.176;2023-05-22T09:23:28;100560.47;;;23.51;52.43
33153;BME280;19509;43.862;26.176;2023-05-22T09:25:58;100559.31;;;24.09;56.34
33153;BME280;19509;43.862;26.176;2023-05-22T09:28:24;100557.38;;;24.42;52.03
33153;BME280;19509;43.862;26.176;2023-05-22T09:30:51;100553.78;;;24.55;51.27
33153;BME280;19509;43.862;26.176;2023-05-22T09:33:18;100549.47;;;24.22;52.39
33153;BME280;19509;43.862;26.176;2023-05-22T09:35:47;100548.31;;;24.23;52.67
33153;BME280;19509;43.862;26.176;2023-05-22T09:38:14;100549.34;;;24.27;50.63
33153;BME280;19509;43.862;26.176;2023-05-22T09:40:40;100546.28;;;24.28;48.40
33153;BME280;19509;43.862;26.176;2023-05-22T09:43:16;100536.00;;;24.20;46.24
33153;BME280;19509;43.862;26.176;2023-05-22T09:45:42;100541.81;;;23.86;48.23
33153;BME280;19509;43.862;26.176;2023-05-22T09:48:08;100544.66;;;23.24;50.72
33153;BME280;19509;43.862;26.176;2023-05-22T09:50:37;100546.97;;;23.17;55.27
33153;BME280;19509;43.862;26.176;2023-05-22T09:53:07;100539.84;;;23.54;48.67
33153;BME280;19509;43.862;26.176;2023-05-22T09:55:35;100537.28;;;23.95;49.52
33153;BME280;19509;43.862;26.176;2023-05-22T09:58:02;100536.81;;;24.21;51.49
33153;BME280;19509;43.862;26.176;2023-05-22T10:00:29;100537.09;;;24.05;48.90
33153;BME280;19509;43.862;26.176;2023-05-22T10:03:01;100536.81;;;24.35;51.45
33153;BME280;19509;43.862;26.176;2023-05-22T10:05:31;100531.22;;;24.26;47.89
33153;BME280;19509;43.862;26.176;2023-05-22T10:08:08;100530.75;;;24.51;49.58
33153;BME280;19509;43.862;26.176;2023-05-22T10:10:35;100541.94;;;24.96;51.35
33153;BME280;19509;43.862;26.176;2023-05-22T10:13:04;100531.78;;;24.69;44.75
33153;BME280;19509;43.862;26.176;2023-05-22T10:15:30;100525.88;;;24.62;47.11
33153;BME280;19509;43.862;26.176;2023-05-22T10:17:57;100528.13;;;24.74;44.43
33153;BME280;19509;43.862;26.176;2023-05-22T10:20:24;100530.88;;;24.14;48.21
33153;BME280;19509;43.862;26.176;2023-05-22T10:22:54;100528.56;;;23.74;48.89
33153;BME280;19509;43.862;26.176;2023-05-22T10:25:20;100526.41;;;23.71;47.57
33153;BME280;19509;43.862;26.176;2023-05-22T10:27:51;100527.13;;;23.39;50.65
33153;BME280;19509;43.862;26.176;2023-05-22T10:33:28;100522.31;;;24.62;46.77
33153;BME280;19509;43.862;26.176;2023-05-22T10:36:04;100518.06;;;25.06;47.60
33153;BME280;19509;43.862;26.176;2023-05-22T10:41:12;100520.88;;;24.50;45.72
33153;BME280;19509;43.862;26.176;2023-05-22T10:43:40;100519.31;;;23.84;48.61
33153;BME280;19509;43.862;26.176;2023-05-22T10:46:07;100512.59;;;24.37;52.15
33153;BME280;19509;43.862;26.176;2023-05-22T10:48:43;100494.94;;;25.43;50.76
33153;BME280;19509;43.862;26.176;2023-05-22T10:51:19;100506.44;;;25.81;47.25
33153;BME280;19509;43.862;26.176;2023-05-22T10:53:50;100508.72;;;25.20;50.32
33153;BME280;19509;43.862;26.176;2023-05-22T10:56:17;100497.84;;;24.74;48.32
33153;BME280;19509;43.862;26.176;2023-05-22T10:58:53;100498.59;;;25.16;48.14
33153;BME280;19509;43.862;26.176;2023-05-22T11:01:26;100492.81;;;25.40;47.25
33153;BME280;19509;43.862;26.176;2023-05-22T11:03:59;100494.44;;;25.18;45.80
33153;BME280;19509;43.862;26.176;2023-05-22T11:06:42;100487.16;;;24.45;47.77
33153;BME280;19509;43.862;26.176;2023-05-22T11:09:29;100482.66;;;23.56;51.67
33153;BME280;19509;43.862;26.176;2023-05-22T11:15:02;100462.31;;;23.76;49.24
33153;BME280;19509;43.862;26.176;2023-05-22T11:17:50;100476.44;;;24.71;48.71
33153;BME280;19509;43.862;26.176;2023-05-22T11:20:23;100470.09;;;24.84;47.96
33153;BME280;19509;43.862;26.176;2023-05-22T11:23:03;100467.19;;;24.53;48.34
33153;BME280;19509;43.862;26.176;2023-05-22T11:25:33;100462.78;;;24.38;45.59
33153;BME280;19509;43.862;26.176;2023-05-22T11:28:02;100457.78;;;24.82;46.18
33153;BME280;19509;43.862;26.176;2023-05-22T11:30:28;100457.56;;;25.51;45.69
33153;BME280;19509;43.862;26.176;2023-05-22T11:32:56;100450.34;;;25.63;44.81
33153;BME280;19509;43.862;26.176;2023-05-22T11:35:23;100456.22;;;24.89;43.01
33153;BME280;19509;43.862;26.176;2023-05-22T11:37:50;100448.50;;;23.95;47.58
33153;BME280;19509;43.862;26.176;2023-05-22T11:40:25;100454.13;;;23.71;46.77
33153;BME280;19509;43.862;26.176;2023-05-22T11:42:53;100451.09;;;24.96;47.90
33153;BME280;19509;43.862;26.176;2023-05-22T11:45:19;100428.50;;;25.67;45.10
33153;BME280;19509;43.862;26.176;2023-05-22T11:47:45;100437.53;;;25.14;44.28
33153;BME280;19509;43.862;26.176;2023-05-22T11:50:12;100436.75;;;24.86;46.41
33153;BME280;19509;43.862;26.176;2023-05-22T11:52:40;100428.75;;;24.20;47.02
33153;BME280;19509;43.862;26.176;2023-05-22T11:55:06;100430.19;;;24.45;46.84
33153;BME280;19509;43.862;26.176;2023-05-22T11:57:33;100410.66;;;24.97;44.69
33153;BME280;19509;43.862;26.176;2023-05-22T11:59:59;100418.25;;;25.36;44.87
33153;BME280;19509;43.862;26.176;2023-05-22T12:02:25;100429.47;;;25.40;42.72
33153;BME280;19509;43.862;26.176;2023-05-22T12:04:54;100424.31;;;24.88;48.53
33153;BME280;19509;43.862;26.176;2023-05-22T12:07:21;100420.81;;;24.60;45.44
33153;BME280;19509;43.862;26.176;2023-05-22T12:09:47;100413.78;;;23.85;47.02
33153;BME280;19509;43.862;26.176;2023-05-22T12:12:14;100416.00;;;24.38;47.19
33153;BME280;19509;43.862;26.176;2023-05-22T12:14:43;100402.22;;;24.79;46.36
33153;BME280;19509;43.862;26.176;2023-05-22T12:17:11;100415.75;;;25.26;43.60
33153;BME280;19509;43.862;26.176;2023-05-22T12:19:39;100403.81;;;25.31;43.49
33153;BME280;19509;43.862;26.176;2023-05-22T12:22:05;100400.91;;;25.13;43.66
33153;BME280;19509;43.862;26.176;2023-05-22T12:24:44;100393.97;;;25.38;45.34
33153;BME280;19509;43.862;26.176;2023-05-22T12:27:13;100395.16;;;25.46;43.69
33153;BME280;19509;43.862;26.176;2023-05-22T12:29:39;100391.69;;;25.63;46.56
33153;BME280;19509;43.862;26.176;2023-05-22T12:32:09;100382.84;;;26.06;42.93
33153;BME280;19509;43.862;26.176;2023-05-22T12:34:44;100381.34;;;25.68;41.11
33153;BME280;19509;43.862;26.176;2023-05-22T12:37:23;100375.84;;;25.77;41.79
33153;BME280;19509;43.862;26.176;2023-05-22T12:39:58;100383.22;;;25.59;41.48
33153;BME280;19509;43.862;26.176;2023-05-22T12:42:25;100381.00;;;25.70;42.50
33153;BME280;19509;43.862;26.176;2023-05-22T12:44:55;100371.41;;;25.36;42.15
33153;BME280;19509;43.862;26.176;2023-05-22T12:47:21;100376.00;;;25.18;43.88
33153;BME280;19509;43.862;26.176;2023-05-22T12:49:47;100365.88;;;25.59;41.08
33153;BME280;19509;43.862;26.176;2023-05-22T12:52:13;100362.34;;;25.36;42.57
33153;BME280;19509;43.862;26.176;2023-05-22T12:54:38;100362.63;;;25.57;44.42
33153;BME280;19509;43.862;26.176;2023-05-22T12:57:04;100366.16;;;25.04;41.73
33153;BME280;19509;43.862;26.176;2023-05-22T12:59:29;100362.72;;;24.62;41.93
33153;BME280;19509;43.862;26.176;2023-05-22T13:01:58;100362.91;;;25.01;43.57